createdAt,value
2023-04-10T00:00:39.442Z,7.60
2023-04-10T00:03:07.804Z,7.27
2023-04-10T00:05:36.425Z,7.03
2023-04-10T00:08:06.165Z,7.03
2023-04-10T00:10:34.279Z,7.20
2023-04-10T00:13:03.654Z,7.23
2023-04-10T00:15:31.892Z,6.83
2023-04-10T00:18:00.020Z,8.10
2023-04-10T00:20:28.183Z,8.47
2023-04-10T00:22:56.405Z,9.60
2023-04-10T00:25:26.626Z,8.30
2023-04-10T00:27:55.235Z,7.67
2023-04-10T00:30:23.501Z,13.63
2023-04-10T00:32:51.576Z,6.87
2023-04-10T00:35:19.825Z,6.77
2023-04-10T00:37:47.922Z,6.93
2023-04-10T00:40:16.079Z,6.47
2023-04-10T00:42:45.476Z,7.63
2023-04-10T00:45:13.528Z,7.20
2023-04-10T00:47:41.997Z,8.80
2023-04-10T00:50:11.012Z,7.17
2023-04-10T00:52:39.394Z,8.13
2023-04-10T00:55:08.699Z,6.27
2023-04-10T00:57:37.303Z,7.10
2023-04-10T01:00:08.204Z,6.10
2023-04-10T01:02:36.526Z,6.47
2023-04-10T01:05:05.059Z,7.90
2023-04-10T01:07:44.575Z,7.60
2023-04-10T01:10:19.290Z,8.07
2023-04-10T01:13:00.999Z,7.37
2023-04-10T01:15:32.543Z,6.43
2023-04-10T01:18:05.700Z,7.30
2023-04-10T01:20:39.333Z,8.93
2023-04-10T01:23:36.083Z,6.47
2023-04-10T01:26:06.653Z,7.57
2023-04-10T01:28:54.620Z,6.10
2023-04-10T01:31:28.548Z,6.53
2023-04-10T01:34:02.386Z,6.60
2023-04-10T01:36:38.010Z,7.90
2023-04-10T01:39:07.945Z,6.20
2023-04-10T01:41:37.033Z,6.60
2023-04-10T01:44:08.430Z,8.57
2023-04-10T01:46:38.477Z,9.73
2023-04-10T01:49:07.322Z,7.90
2023-04-10T01:51:36.707Z,12.17
2023-04-10T01:54:07.123Z,7.87
2023-04-10T01:56:35.738Z,8.03
2023-04-10T01:59:05.649Z,6.67
2023-04-10T02:01:35.196Z,8.47
2023-04-10T02:04:03.766Z,8.33
2023-04-10T02:06:43.143Z,8.70
2023-04-10T02:09:19.150Z,8.07
2023-04-10T02:11:52.930Z,6.27
2023-04-10T02:14:24.194Z,6.43
2023-04-10T02:16:56.159Z,8.10
2023-04-10T02:19:26.390Z,7.93
2023-04-10T02:21:55.212Z,6.93
2023-04-10T02:24:24.354Z,7.73
2023-04-10T02:26:53.742Z,7.30
2023-04-10T02:29:21.867Z,6.80
2023-04-10T02:31:50.948Z,7.77
2023-04-10T02:34:20.400Z,6.90
2023-04-10T02:36:48.483Z,6.50
2023-04-10T02:39:16.641Z,8.30
2023-04-10T02:41:44.723Z,6.77
2023-04-10T02:44:12.779Z,6.30
2023-04-10T02:46:41.310Z,8.07
2023-04-10T02:49:10.613Z,6.13
2023-04-10T02:51:40.094Z,6.73
2023-04-10T02:54:08.166Z,5.93
2023-04-10T02:56:36.469Z,7.67
2023-04-10T02:59:04.741Z,7.03
2023-04-10T03:07:05.024Z,6.83
2023-04-10T03:09:33.064Z,8.23
2023-04-10T03:12:02.118Z,7.03
2023-04-10T03:14:30.503Z,7.20
2023-04-10T03:16:58.642Z,6.93
2023-04-10T03:19:28.157Z,7.63
2023-04-10T03:21:56.282Z,6.10
2023-04-10T03:24:25.770Z,9.23
2023-04-10T03:26:53.930Z,9.20
2023-04-10T03:29:22.594Z,7.63
2023-04-10T03:31:50.930Z,6.27
2023-04-10T03:34:19.099Z,7.93
2023-04-10T03:36:47.934Z,8.27
2023-04-10T03:39:16.070Z,9.17
2023-04-10T03:41:45.503Z,7.13
2023-04-10T03:44:13.547Z,6.87
2023-04-10T03:46:41.650Z,7.10
2023-04-10T03:49:09.787Z,8.93
2023-04-10T03:51:37.834Z,6.37
2023-04-10T03:54:05.995Z,8.57
2023-04-10T03:56:34.183Z,7.30
2023-04-10T03:59:03.617Z,7.97
2023-04-10T04:01:33.092Z,7.70
2023-04-10T04:04:01.566Z,7.23
2023-04-10T04:06:31.179Z,7.70
2023-04-10T04:08:59.246Z,7.43
2023-04-10T04:11:28.807Z,6.20
2023-04-10T04:13:56.939Z,6.30
2023-04-10T04:16:26.472Z,7.47
2023-04-10T04:18:54.810Z,7.57
2023-04-10T04:21:22.915Z,7.63
2023-04-10T04:23:51.032Z,6.40
2023-04-10T04:26:19.150Z,7.00
2023-04-10T04:28:47.343Z,7.93
2023-04-10T04:31:15.726Z,7.23
2023-04-10T04:33:45.426Z,6.50
2023-04-10T04:36:13.950Z,7.80
2023-04-10T04:38:42.075Z,6.53
2023-04-10T04:41:10.345Z,7.67
2023-04-10T04:43:38.414Z,9.77
2023-04-10T04:46:06.925Z,9.70
2023-04-10T04:48:36.141Z,7.53
2023-04-10T04:51:07.529Z,8.27
2023-04-10T04:53:35.639Z,9.40
2023-04-10T04:56:03.791Z,7.60
2023-04-10T04:58:31.916Z,8.10
2023-04-10T05:01:00.352Z,7.90
2023-04-10T05:03:29.434Z,8.37
2023-04-10T05:05:59.319Z,8.83
2023-04-10T05:08:28.814Z,10.00
2023-04-10T05:10:57.059Z,8.07
2023-04-10T05:13:25.387Z,7.73
2023-04-10T05:15:53.547Z,7.37
2023-04-10T05:18:23.770Z,7.93
2023-04-10T05:20:51.986Z,9.17
2023-04-10T05:23:20.096Z,8.13
2023-04-10T05:25:49.525Z,8.70
2023-04-10T05:28:17.663Z,7.93
2023-04-10T05:30:45.839Z,6.67
2023-04-10T05:33:13.927Z,7.73
2023-04-10T05:35:42.109Z,7.13
2023-04-10T05:38:10.413Z,8.70
2023-04-10T05:40:38.480Z,7.90
2023-04-10T05:43:08.600Z,10.37
2023-04-10T05:45:36.658Z,8.90
2023-04-10T05:48:04.915Z,8.37
2023-04-10T05:50:33.069Z,7.77
2023-04-10T05:53:01.106Z,7.67
2023-04-10T05:55:31.722Z,8.10
2023-04-10T05:57:59.810Z,6.60
2023-04-10T06:00:29.216Z,7.17
2023-04-10T06:02:57.440Z,7.37
2023-04-10T06:05:25.988Z,9.70
2023-04-10T06:07:55.736Z,7.57
2023-04-10T06:10:25.033Z,6.20
2023-04-10T06:12:53.031Z,6.30
2023-04-10T06:15:21.132Z,6.17
2023-04-10T06:17:50.606Z,8.07
2023-04-10T06:20:18.708Z,6.17
2023-04-10T06:22:47.178Z,6.77
2023-04-10T06:25:15.411Z,7.70
2023-04-10T06:27:43.517Z,7.03
2023-04-10T06:30:12.029Z,9.20
2023-04-10T06:32:40.169Z,11.97
2023-04-10T06:35:10.536Z,9.30
2023-04-10T06:37:38.645Z,5.77
2023-04-10T06:40:08.306Z,6.30
2023-04-10T06:42:36.771Z,8.70
2023-04-10T06:45:06.064Z,7.63
2023-04-10T06:47:34.277Z,7.33
2023-04-10T06:50:02.330Z,8.33
2023-04-10T06:52:31.800Z,7.70
2023-04-10T06:54:59.880Z,7.57
2023-04-10T06:57:28.773Z,7.90
2023-04-10T06:59:56.940Z,7.97
2023-04-10T07:02:25.343Z,6.47
2023-04-10T07:04:53.743Z,7.83
2023-04-10T07:07:21.903Z,8.53
2023-04-10T07:09:51.347Z,8.73
2023-04-10T07:12:19.424Z,7.00
2023-04-10T07:14:47.574Z,8.73
2023-04-10T07:17:15.648Z,8.13
2023-04-10T07:19:43.763Z,7.33
2023-04-10T07:22:12.634Z,7.00
2023-04-10T07:24:40.728Z,7.63
2023-04-10T07:27:10.322Z,9.10
2023-04-10T07:29:38.390Z,6.80
2023-04-10T07:32:07.092Z,6.17
2023-04-10T07:34:35.304Z,6.73
2023-04-10T07:37:03.400Z,6.90
2023-04-10T07:39:31.464Z,7.00
2023-04-10T07:41:59.560Z,6.93
2023-04-10T07:44:29.767Z,7.87
2023-04-10T07:46:58.947Z,6.47
2023-04-10T07:49:27.172Z,9.97
2023-04-10T07:51:55.458Z,7.37
2023-04-10T07:54:23.639Z,6.73
2023-04-10T07:56:53.619Z,6.73
2023-04-10T07:59:21.756Z,6.17
2023-04-10T08:01:51.432Z,8.07
2023-04-10T08:04:19.781Z,5.93
2023-04-10T08:06:49.518Z,5.73
2023-04-10T08:09:17.592Z,6.53
2023-04-10T08:11:45.674Z,6.40
2023-04-10T08:14:13.799Z,5.78
2023-04-10T08:16:46.641Z,6.13
2023-04-10T08:19:16.101Z,6.10
2023-04-10T08:21:44.228Z,6.00
2023-04-10T08:24:12.328Z,6.45
2023-04-10T08:26:40.385Z,7.30
2023-04-10T08:29:08.457Z,6.65
2023-04-10T08:31:36.605Z,6.63
2023-04-10T08:34:04.993Z,6.20
2023-04-10T08:36:35.517Z,6.43
2023-04-10T08:39:03.595Z,6.80
2023-04-10T08:41:31.761Z,6.32
2023-04-10T08:43:59.851Z,8.40
2023-04-10T08:46:28.145Z,6.40
2023-04-10T08:49:02.922Z,6.43
2023-04-10T08:51:38.306Z,5.82
2023-04-10T08:54:09.009Z,7.35
2023-04-10T08:56:38.890Z,6.75
2023-04-10T08:59:08.723Z,6.60
2023-04-10T09:01:37.177Z,6.63
2023-04-10T09:04:06.134Z,6.30
2023-04-10T09:06:36.125Z,6.72
2023-04-10T09:09:04.699Z,10.23
2023-04-10T09:12:04.350Z,6.30
2023-04-10T09:14:33.584Z,6.03
2023-04-10T09:17:18.625Z,4.70
2023-04-10T09:19:48.126Z,5.72
2023-04-10T09:22:17.966Z,6.60
2023-04-10T09:24:48.235Z,6.35
2023-04-10T09:27:31.252Z,5.22
2023-04-10T09:29:59.827Z,8.07
2023-04-10T09:32:42.332Z,5.70
2023-04-10T09:35:11.852Z,5.40
2023-04-10T09:37:42.695Z,5.40
2023-04-10T09:51:37.201Z,5.83
2023-04-10T09:54:06.947Z,5.57
2023-04-10T09:56:40.945Z,7.03
2023-04-10T09:59:09.582Z,6.30
2023-04-10T10:01:41.385Z,7.80
2023-04-10T10:04:11.153Z,4.77
2023-04-10T10:06:40.324Z,6.27
2023-04-10T10:09:10.321Z,5.53
2023-04-10T10:11:38.554Z,5.33
2023-04-10T10:14:14.146Z,5.57
2023-04-10T10:16:46.753Z,4.77
2023-04-10T10:19:24.612Z,4.63
2023-04-10T10:21:53.523Z,4.73
2023-04-10T10:24:26.207Z,5.37
2023-04-10T10:26:57.333Z,5.20
2023-04-10T10:29:26.029Z,5.32
2023-04-10T10:31:55.098Z,4.63
2023-04-10T10:34:23.330Z,5.43
2023-04-10T10:36:51.480Z,5.10
2023-04-10T10:39:31.960Z,7.35
2023-04-10T10:42:08.904Z,4.55
2023-04-10T10:44:44.078Z,5.18
2023-04-10T10:47:17.345Z,5.00
2023-04-10T10:49:56.307Z,4.38
2023-04-10T10:52:57.225Z,5.68
2023-04-10T10:55:36.088Z,5.00
2023-04-10T10:58:06.209Z,4.95
2023-04-10T11:01:08.395Z,8.43
2023-04-10T11:03:38.480Z,5.10
2023-04-10T11:06:08.971Z,4.85
2023-04-10T11:08:42.660Z,5.75
2023-04-10T11:11:16.056Z,6.05
2023-04-10T11:14:18.413Z,7.45
2023-04-10T11:16:48.748Z,6.40
2023-04-10T11:19:22.657Z,5.47
2023-04-10T11:22:09.221Z,4.70
2023-04-10T11:25:51.229Z,4.55
2023-04-10T11:28:42.233Z,5.80
2023-04-10T11:31:22.259Z,4.63
2023-04-10T11:33:52.189Z,4.38
2023-04-10T11:36:20.475Z,5.25
2023-04-10T11:38:58.977Z,4.63
2023-04-10T11:41:32.004Z,4.53
2023-04-10T11:44:03.303Z,4.45
2023-04-10T11:46:32.042Z,5.78
2023-04-10T11:49:01.634Z,4.68
2023-04-10T11:51:31.059Z,5.68
2023-04-10T11:54:09.626Z,4.15
2023-04-10T11:56:39.066Z,7.03
2023-04-10T11:59:10.944Z,5.20
2023-04-10T12:01:42.499Z,4.22
2023-04-10T12:04:18.108Z,3.60
2023-04-10T12:06:47.261Z,3.85
2023-04-10T12:09:17.511Z,3.28
2023-04-10T12:11:56.809Z,3.40
2023-04-10T12:14:31.600Z,3.55
2023-04-10T12:17:00.032Z,3.42
2023-04-10T12:19:28.526Z,3.85
2023-04-10T12:21:57.460Z,7.38
2023-04-10T12:24:44.896Z,3.60
2023-04-10T12:27:19.704Z,3.40
2023-04-10T12:29:50.498Z,4.22
2023-04-10T12:32:19.128Z,4.15
2023-04-10T12:34:51.840Z,3.45
2023-04-10T12:37:20.192Z,3.72
2023-04-10T12:39:48.278Z,3.35
2023-04-10T12:42:17.782Z,3.42
2023-04-10T12:44:54.301Z,3.78
2023-04-10T12:47:22.570Z,2.92
2023-04-10T12:50:10.869Z,3.00
2023-04-10T12:52:40.400Z,7.55
2023-04-10T12:55:15.998Z,4.82
2023-04-10T12:57:46.080Z,4.03
2023-04-10T13:00:17.778Z,3.13
2023-04-10T13:02:47.260Z,2.50
2023-04-10T13:05:16.453Z,3.28
2023-04-10T13:07:44.609Z,3.58
2023-04-10T13:10:12.897Z,4.90
2023-04-10T13:12:42.104Z,4.22
2023-04-10T13:15:11.558Z,2.85
2023-04-10T13:17:41.831Z,2.78
2023-04-10T13:20:11.412Z,2.83
2023-04-10T13:22:39.498Z,3.88
2023-04-10T13:25:08.048Z,2.92
2023-04-10T13:27:38.915Z,2.85
2023-04-10T13:30:08.365Z,4.78
2023-04-10T13:32:36.519Z,3.90
2023-04-10T13:35:06.769Z,4.43
2023-04-10T13:37:34.833Z,3.13
2023-04-10T13:40:02.949Z,3.25
2023-04-10T13:42:31.050Z,4.28
2023-04-10T13:44:59.098Z,3.00
2023-04-10T13:47:27.204Z,3.85
2023-04-10T13:49:55.348Z,4.07
2023-04-10T13:52:24.816Z,4.47
2023-04-10T13:54:52.905Z,2.90
2023-04-10T13:57:20.942Z,3.28
2023-04-10T13:59:49.088Z,3.25
2023-04-10T14:02:17.354Z,3.05
2023-04-10T14:04:46.251Z,2.92
2023-04-10T14:07:14.370Z,3.03
2023-04-10T14:09:43.791Z,3.53
2023-04-10T14:12:12.011Z,3.00
2023-04-10T14:14:42.463Z,3.05
2023-04-10T14:17:10.596Z,2.80
2023-04-10T14:19:38.876Z,3.65
2023-04-10T14:22:07.121Z,4.97
2023-04-10T14:24:35.395Z,2.35
2023-04-10T14:27:05.068Z,2.83
2023-04-10T14:29:37.637Z,3.63
2023-04-10T14:32:07.636Z,2.50
2023-04-10T14:34:35.807Z,3.65
2023-04-10T14:37:03.908Z,2.47
2023-04-10T14:39:32.865Z,2.53
2023-04-10T14:42:02.030Z,2.97
2023-04-10T14:44:32.020Z,2.70
2023-04-10T14:47:00.151Z,3.25
2023-04-10T14:49:28.215Z,2.30
2023-04-10T14:51:56.390Z,3.55
2023-04-10T14:54:24.488Z,4.35
2023-04-10T15:00:45.061Z,2.50
2023-04-10T15:03:13.295Z,2.90
2023-04-10T15:05:41.423Z,2.10
2023-04-10T15:08:09.571Z,2.47
2023-04-10T15:10:37.673Z,3.43
2023-04-10T15:13:06.128Z,2.57
2023-04-10T15:15:34.225Z,3.67
2023-04-10T15:18:03.738Z,3.20
2023-04-10T15:20:31.819Z,2.87
2023-04-10T15:23:01.664Z,2.87
2023-04-10T15:25:31.691Z,4.03
2023-04-10T15:28:01.759Z,2.27
2023-04-10T15:30:30.298Z,4.67
2023-04-10T15:32:58.417Z,4.37
2023-04-10T15:35:28.795Z,2.10
2023-04-10T15:37:57.139Z,3.03
2023-04-10T15:40:25.218Z,3.43
2023-04-10T15:42:53.312Z,4.10
2023-04-10T15:45:21.428Z,3.23
2023-04-10T15:47:49.739Z,3.23
2023-04-10T15:50:18.027Z,2.63
2023-04-10T15:52:47.479Z,2.40
2023-04-10T15:55:15.882Z,3.67
2023-04-10T15:57:43.960Z,3.23
2023-04-10T16:00:13.436Z,2.37
2023-04-10T16:02:41.738Z,3.30
2023-04-10T16:05:10.311Z,2.80
2023-04-10T16:12:01.999Z,4.43
2023-04-10T16:14:30.069Z,4.03
2023-04-10T16:16:58.179Z,2.33
2023-04-10T16:19:26.308Z,4.67
2023-04-10T16:21:54.399Z,2.33
2023-04-10T16:28:08.048Z,2.87
2023-04-10T16:30:39.603Z,3.13
2023-04-10T16:33:07.802Z,4.43
2023-04-10T16:35:36.100Z,3.93
2023-04-10T16:38:04.308Z,3.40
2023-04-10T16:40:33.224Z,4.00
2023-04-10T16:43:02.129Z,1.97
2023-04-10T16:45:31.686Z,4.00
2023-04-10T16:47:59.798Z,2.23
2023-04-10T16:50:27.884Z,2.27
2023-04-10T16:52:56.039Z,4.43
2023-04-10T16:55:24.133Z,2.50
2023-04-10T16:57:52.229Z,2.67
2023-04-10T17:00:20.580Z,2.33
2023-04-10T17:02:50.101Z,2.70
2023-04-10T17:05:18.236Z,3.23
2023-04-10T17:07:46.271Z,4.07
2023-04-10T17:10:14.387Z,3.03
2023-04-10T17:12:43.580Z,4.53
2023-04-10T17:15:12.466Z,3.27
2023-04-10T17:17:40.782Z,4.07
2023-04-10T17:20:11.183Z,4.23
2023-04-10T17:22:40.678Z,6.23
2023-04-10T17:25:09.563Z,4.87
2023-04-10T17:27:40.303Z,4.33
2023-04-10T17:30:12.822Z,4.70
2023-04-10T17:32:41.998Z,5.17
2023-04-10T17:35:11.547Z,5.50
2023-04-10T17:37:39.667Z,5.47
2023-04-10T17:40:09.031Z,4.20
2023-04-10T17:42:37.132Z,5.50
2023-04-10T17:45:05.823Z,7.70
2023-04-10T17:47:33.935Z,5.60
2023-04-10T17:50:02.069Z,7.13
2023-04-10T17:52:31.555Z,7.00
2023-04-10T17:55:01.545Z,4.80
2023-04-10T17:57:29.742Z,5.27
2023-04-10T17:59:57.921Z,5.07
2023-04-10T18:02:26.118Z,4.60
2023-04-10T18:04:54.321Z,4.70
2023-04-10T18:07:22.365Z,5.13
2023-04-10T18:09:51.865Z,36.13
2023-04-10T18:12:19.949Z,7.47
2023-04-10T18:14:48.526Z,6.03
2023-04-10T18:17:16.593Z,8.30
2023-04-10T18:19:44.675Z,6.00
2023-04-10T18:22:12.785Z,6.07
2023-04-10T18:24:40.917Z,5.23
2023-04-10T18:27:10.364Z,3.70
2023-04-10T18:29:40.092Z,3.93
2023-04-10T18:32:08.697Z,4.90
2023-04-10T18:34:36.823Z,5.07
2023-04-10T18:37:05.176Z,4.90
2023-04-10T18:39:36.103Z,5.60
2023-04-10T18:42:07.472Z,5.23
2023-04-10T18:44:37.311Z,8.70
2023-04-10T18:47:06.072Z,6.03
2023-04-10T18:49:34.302Z,8.17
2023-04-10T18:52:02.588Z,9.97
2023-04-10T18:54:30.711Z,9.20
2023-04-10T18:56:58.789Z,7.17
2023-04-10T18:59:28.231Z,6.27
2023-04-10T19:01:57.767Z,6.57
2023-04-10T19:04:26.110Z,5.87
2023-04-10T19:06:54.228Z,5.27
2023-04-10T19:09:22.354Z,5.43
2023-04-10T19:11:53.759Z,5.70
2023-04-10T19:14:21.950Z,5.07
2023-04-10T19:16:53.338Z,6.33
2023-04-10T19:19:25.485Z,4.60
2023-04-10T19:21:55.355Z,4.97
2023-04-10T19:24:23.857Z,5.20
2023-04-10T19:26:55.175Z,6.23
2023-04-10T19:29:24.636Z,3.93
2023-04-10T19:31:53.036Z,4.77
2023-04-10T19:34:23.125Z,5.77
2023-04-10T19:36:51.850Z,3.70
2023-04-10T19:39:20.068Z,6.07
2023-04-10T19:41:48.384Z,5.60
2023-04-10T19:44:16.568Z,4.10
2023-04-10T19:46:47.500Z,5.10
2023-04-10T19:49:15.973Z,4.00
2023-04-10T19:51:45.910Z,2.67
2023-04-10T19:54:16.209Z,4.17
2023-04-10T19:56:44.298Z,2.87
2023-04-10T19:59:12.422Z,3.10
2023-04-10T20:01:42.858Z,5.20
2023-04-10T20:04:13.092Z,5.27
2023-04-10T20:06:43.249Z,3.27
2023-04-10T20:09:13.164Z,3.50
2023-04-10T20:11:41.383Z,6.60
2023-04-10T20:14:09.537Z,3.13
2023-04-10T20:16:37.893Z,4.13
2023-04-10T20:19:06.162Z,3.23
2023-04-10T20:21:34.446Z,2.37
2023-04-10T20:24:02.520Z,4.10
2023-04-10T20:26:32.034Z,2.63
2023-04-10T20:29:00.457Z,2.43
2023-04-10T20:31:30.898Z,3.67
2023-04-10T20:34:00.367Z,3.17
2023-04-10T20:36:30.358Z,2.43
2023-04-10T20:38:58.489Z,3.40
2023-04-10T20:41:28.108Z,2.47
2023-04-10T20:43:58.625Z,4.57
2023-04-10T20:46:27.583Z,2.17
2023-04-10T20:48:59.358Z,4.00
2023-04-10T20:51:31.675Z,3.57
2023-04-10T20:53:59.858Z,2.37
2023-04-10T20:56:36.714Z,3.20
2023-04-10T20:59:12.802Z,4.07
2023-04-10T21:01:43.568Z,2.93
2023-04-10T21:04:11.743Z,3.37
2023-04-10T21:06:39.967Z,3.13
2023-04-10T21:09:08.032Z,5.27
2023-04-10T21:11:37.353Z,6.57
2023-04-10T21:14:05.532Z,4.03
2023-04-10T21:16:37.637Z,5.50
2023-04-10T21:19:20.901Z,4.40
2023-04-10T21:22:07.406Z,5.47
2023-04-10T21:24:35.557Z,8.07
2023-04-10T21:27:04.435Z,4.27
2023-04-10T21:29:32.536Z,4.40
2023-04-10T21:32:01.988Z,3.77
2023-04-10T21:34:32.926Z,6.80
2023-04-10T21:37:01.077Z,4.03
2023-04-10T21:39:30.739Z,4.57
2023-04-10T21:41:58.813Z,6.80
2023-04-10T21:44:26.920Z,6.87
2023-04-10T21:46:55.245Z,7.97
2023-04-10T21:49:24.709Z,5.87
2023-04-10T21:51:52.770Z,14.63
2023-04-10T21:54:20.843Z,8.47
2023-04-10T21:56:48.890Z,6.63
2023-04-10T21:59:16.983Z,6.40
2023-04-10T22:01:45.137Z,7.57
2023-04-10T22:04:13.403Z,5.63
2023-04-10T22:06:43.062Z,6.10
2023-04-10T22:09:11.175Z,7.60
2023-04-10T22:11:40.359Z,8.37
2023-04-10T22:14:17.037Z,8.77
2023-04-10T22:16:46.359Z,7.00
2023-04-10T22:19:14.512Z,5.57
2023-04-10T22:21:44.004Z,5.53
2023-04-10T22:24:12.223Z,8.87
2023-04-10T22:26:42.107Z,13.10
2023-04-10T22:29:10.263Z,5.63
2023-04-10T22:31:38.356Z,6.23
2023-04-10T22:34:06.401Z,7.57
2023-04-10T22:36:34.617Z,8.43
2023-04-10T22:39:04.429Z,9.70
2023-04-10T22:41:33.043Z,8.40
2023-04-10T22:44:01.160Z,9.17
2023-04-10T22:46:29.470Z,10.43
2023-04-10T22:48:57.872Z,5.10
2023-04-10T22:51:26.806Z,6.50
2023-04-10T22:53:54.915Z,7.10
2023-04-10T22:56:26.715Z,11.17
2023-04-10T22:58:55.085Z,11.37
2023-04-10T23:01:23.419Z,8.10
2023-04-10T23:03:53.745Z,9.33
2023-04-10T23:06:22.133Z,11.10
2023-04-10T23:08:50.207Z,8.77
2023-04-10T23:11:18.407Z,11.23
2023-04-10T23:13:48.813Z,10.07
2023-04-10T23:16:16.942Z,10.17
2023-04-10T23:18:45.134Z,10.43
2023-04-10T23:21:13.204Z,10.03
2023-04-10T23:23:41.305Z,13.83
2023-04-10T23:26:11.315Z,12.90
2023-04-10T23:28:39.586Z,10.43
2023-04-10T23:31:10.129Z,15.50
2023-04-10T23:33:38.343Z,9.60
2023-04-10T23:36:07.316Z,13.07
2023-04-10T23:38:35.416Z,14.23
2023-04-10T23:41:03.971Z,15.23
2023-04-10T23:43:32.079Z,17.80
2023-04-10T23:46:00.364Z,9.97
2023-04-10T23:48:29.853Z,14.87
2023-04-10T23:51:05.388Z,11.57
2023-04-10T23:53:33.584Z,12.00
2023-04-10T23:56:01.863Z,17.33
2023-04-10T23:58:30.032Z,12.77
